createdAt,value
2022-12-19T00:01:19.152Z,-6.42
2022-12-19T00:03:54.219Z,-6.42
2022-12-19T00:06:30.226Z,-6.33
2022-12-19T00:09:01.809Z,-6.36
2022-12-19T00:11:33.966Z,-6.32
2022-12-19T00:14:05.855Z,-6.36
2022-12-19T00:16:37.556Z,-6.31
2022-12-19T00:19:10.552Z,-6.19
2022-12-19T00:21:42.177Z,-6.22
2022-12-19T00:24:20.868Z,-6.11
2022-12-19T00:26:55.592Z,-6.14
2022-12-19T00:29:28.395Z,-6.11
2022-12-19T00:31:59.979Z,-6.06
2022-12-19T00:34:31.638Z,-6.04
2022-12-19T00:37:06.958Z,-5.95
2022-12-19T00:39:41.817Z,-5.88
2022-12-19T00:42:13.465Z,-5.85
2022-12-19T00:44:47.677Z,-5.87
2022-12-19T00:47:19.273Z,-5.89
2022-12-19T00:49:51.024Z,-5.89
2022-12-19T00:52:22.614Z,-5.90
2022-12-19T00:54:57.209Z,-5.87
2022-12-19T00:57:29.847Z,-5.85
2022-12-19T01:00:01.528Z,-5.86
2022-12-19T01:02:33.234Z,-5.80
2022-12-19T01:05:08.461Z,-5.85
2022-12-19T01:07:43.026Z,-5.89
2022-12-19T01:10:14.705Z,-5.93
2022-12-19T01:12:46.277Z,-5.92
2022-12-19T01:15:20.727Z,-5.77
2022-12-19T01:17:52.363Z,-5.83
2022-12-19T01:20:29.654Z,-5.92
2022-12-19T01:23:02.454Z,-5.94
2022-12-19T01:25:39.125Z,-5.89
2022-12-19T01:28:16.501Z,-5.84
2022-12-19T01:30:49.597Z,-5.77
2022-12-19T01:33:23.013Z,-5.75
2022-12-19T01:35:54.644Z,-5.64
2022-12-19T01:38:26.222Z,-5.83
2022-12-19T01:40:57.884Z,-5.93
2022-12-19T01:43:34.237Z,-5.96
2022-12-19T01:46:14.687Z,-5.96
2022-12-19T01:48:47.992Z,-5.91
2022-12-19T01:51:26.828Z,-5.97
2022-12-19T01:54:06.640Z,-5.86
2022-12-19T01:56:42.473Z,-5.80
2022-12-19T01:59:19.793Z,-5.73
2022-12-19T02:02:00.403Z,-5.70
2022-12-19T02:04:32.804Z,-5.61
2022-12-19T02:07:15.997Z,-5.65
2022-12-19T02:09:57.339Z,-5.58
2022-12-19T02:12:43.146Z,-5.50
2022-12-19T02:15:17.335Z,-5.52
2022-12-19T02:18:11.711Z,-5.45
2022-12-19T02:21:05.007Z,-5.41
2022-12-19T02:24:14.708Z,-5.42
2022-12-19T02:26:59.594Z,-5.35
2022-12-19T02:30:06.347Z,-5.44
2022-12-19T02:33:21.037Z,-5.43
2022-12-19T02:36:05.244Z,-5.58
2022-12-19T02:38:43.724Z,-5.58
2022-12-19T02:41:26.079Z,-5.63
2022-12-19T02:43:59.209Z,-5.58
2022-12-19T02:46:34.733Z,-5.60
2022-12-19T02:49:06.587Z,-5.58
2022-12-19T02:51:38.150Z,-5.58
2022-12-19T02:54:12.836Z,-5.58
2022-12-19T02:57:00.420Z,-5.52
2022-12-19T02:59:42.994Z,-5.45
2022-12-19T03:02:43.185Z,-5.42
2022-12-19T03:05:45.988Z,-5.32
2022-12-19T03:08:47.393Z,-5.28
2022-12-19T03:11:23.251Z,-5.20
2022-12-19T03:14:00.733Z,-5.17
2022-12-19T03:16:35.907Z,-5.14
2022-12-19T03:19:10.579Z,-5.15
2022-12-19T03:21:47.661Z,-5.11
2022-12-19T03:24:22.932Z,-5.10
2022-12-19T03:27:22.612Z,-5.10
2022-12-19T03:30:07.723Z,-5.20
2022-12-19T03:32:41.558Z,-5.14
2022-12-19T03:35:20.506Z,-5.14
2022-12-19T03:37:55.205Z,-5.16
2022-12-19T03:40:28.769Z,-5.21
2022-12-19T03:43:11.292Z,-5.23
2022-12-19T03:45:43.457Z,-5.25
2022-12-19T03:48:47.792Z,-5.25
2022-12-19T03:51:46.151Z,-5.24
2022-12-19T03:54:27.367Z,-5.23
2022-12-19T03:57:20.074Z,-5.24
2022-12-19T04:00:00.913Z,-5.25
2022-12-19T04:02:36.246Z,-5.24
2022-12-19T04:05:10.513Z,-5.24
2022-12-19T04:07:46.274Z,-5.19
2022-12-19T04:10:21.825Z,-5.09
2022-12-19T04:13:01.819Z,-5.08
2022-12-19T04:16:00.427Z,-5.04
2022-12-19T04:18:33.776Z,-4.98
2022-12-19T04:21:19.414Z,-4.93
2022-12-19T04:24:20.673Z,-4.90
2022-12-19T04:26:54.923Z,-4.92
2022-12-19T04:29:28.630Z,-4.89
2022-12-19T04:32:02.540Z,-4.92
2022-12-19T04:34:36.882Z,-4.87
2022-12-19T04:37:12.383Z,-4.81
2022-12-19T04:39:44.120Z,-4.75
2022-12-19T04:42:15.699Z,-4.77
2022-12-19T04:44:47.331Z,-4.87
2022-12-19T04:47:19.135Z,-4.93
2022-12-19T04:49:51.801Z,-4.97
2022-12-19T04:52:23.355Z,-4.95
2022-12-19T04:54:55.942Z,-4.93
2022-12-19T04:57:34.415Z,-4.99
2022-12-19T05:00:08.645Z,-4.98
2022-12-19T05:02:40.448Z,-4.93
2022-12-19T05:05:14.398Z,-4.97
2022-12-19T05:07:49.677Z,-4.97
2022-12-19T05:10:21.546Z,-4.90
2022-12-19T05:12:55.137Z,-4.93
2022-12-19T05:15:26.749Z,-5.00
2022-12-19T05:17:58.333Z,-5.08
2022-12-19T05:20:29.960Z,-5.10
2022-12-19T05:23:05.009Z,-5.10
2022-12-19T05:25:38.378Z,-5.04
2022-12-19T05:28:11.171Z,-5.02
2022-12-19T05:30:49.159Z,-4.94
2022-12-19T05:33:25.894Z,-4.85
2022-12-19T05:35:57.567Z,-4.76
2022-12-19T05:38:32.514Z,-4.70
2022-12-19T05:41:15.370Z,-4.60
2022-12-19T05:43:54.715Z,-4.50
2022-12-19T05:46:27.417Z,-4.42
2022-12-19T05:48:59.413Z,-4.42
2022-12-19T05:51:31.582Z,-4.40
2022-12-19T05:54:03.314Z,-4.41
2022-12-19T05:56:34.952Z,-4.39
2022-12-19T05:59:06.516Z,-4.41
2022-12-19T06:01:38.438Z,-4.37
2022-12-19T06:04:10.143Z,-4.35
2022-12-19T06:06:44.543Z,-4.32
2022-12-19T06:09:16.190Z,-4.24
2022-12-19T06:11:47.842Z,-4.18
2022-12-19T06:14:19.415Z,-4.26
2022-12-19T06:16:51.003Z,-4.25
2022-12-19T06:19:22.786Z,-4.28
2022-12-19T06:21:54.346Z,-4.28
2022-12-19T06:24:26.797Z,-4.23
2022-12-19T06:26:59.404Z,-4.21
2022-12-19T06:29:31.033Z,-4.20
2022-12-19T06:32:02.654Z,-4.16
2022-12-19T06:35:02.833Z,-4.06
2022-12-19T06:37:25.893Z,-3.94
2022-12-19T06:39:58.459Z,-3.88
2022-12-19T06:42:30.057Z,-3.89
2022-12-19T06:45:01.704Z,-3.89
2022-12-19T06:47:33.245Z,-3.85
2022-12-19T06:50:05.092Z,-3.90
2022-12-19T06:52:36.940Z,-3.88
2022-12-19T06:55:09.408Z,-3.86
2022-12-19T06:57:46.046Z,-3.86
2022-12-19T07:00:17.974Z,-3.83
2022-12-19T07:02:51.762Z,-3.89
2022-12-19T07:05:23.644Z,-4.00
2022-12-19T07:07:58.254Z,-3.99
2022-12-19T07:10:29.918Z,-3.97
2022-12-19T07:13:01.993Z,-3.94
2022-12-19T07:15:35.031Z,-3.93
2022-12-19T07:18:09.489Z,-3.90
2022-12-19T07:20:45.220Z,-3.89
2022-12-19T07:23:20.369Z,-3.82
2022-12-19T07:25:51.994Z,-3.75
2022-12-19T07:28:23.770Z,-3.68
2022-12-19T07:30:56.035Z,-3.62
2022-12-19T07:33:27.868Z,-3.59
2022-12-19T07:35:59.443Z,-3.59
2022-12-19T07:38:30.997Z,-3.59
2022-12-19T07:41:02.925Z,-3.52
2022-12-19T07:43:34.567Z,-3.43
2022-12-19T07:46:06.222Z,-3.38
2022-12-19T07:48:37.943Z,-3.31
2022-12-19T07:51:09.534Z,-3.28
2022-12-19T07:53:41.181Z,-3.24
2022-12-19T07:56:12.747Z,-3.19
2022-12-19T07:58:44.813Z,-3.17
2022-12-19T08:01:16.569Z,-3.12
2022-12-19T08:03:48.212Z,-3.12
2022-12-19T08:06:20.226Z,-3.19
2022-12-19T08:08:51.914Z,-3.22
2022-12-19T08:11:27.430Z,-3.17
2022-12-19T08:13:59.393Z,-3.05
2022-12-19T08:16:31.199Z,-3.05
2022-12-19T08:19:03.614Z,-3.01
2022-12-19T08:21:35.235Z,-2.93
2022-12-19T08:24:07.143Z,-2.89
2022-12-19T08:26:43.151Z,-2.99
2022-12-19T08:29:17.695Z,-2.91
2022-12-19T08:31:49.434Z,-2.96
2022-12-19T08:34:21.109Z,-2.93
2022-12-19T08:36:52.693Z,-2.89
2022-12-19T08:39:24.300Z,-2.85
2022-12-19T08:41:55.849Z,-2.83
2022-12-19T08:44:27.530Z,-2.77
2022-12-19T08:46:59.163Z,-2.73
2022-12-19T08:49:30.825Z,-2.79
2022-12-19T08:52:02.651Z,-2.76
2022-12-19T08:54:34.293Z,-2.74
2022-12-19T08:57:05.862Z,-2.75
2022-12-19T08:59:37.487Z,-2.80
2022-12-19T09:02:11.149Z,-2.66
2022-12-19T09:05:58.786Z,-2.52
2022-12-19T09:07:37.856Z,-2.39
2022-12-19T09:10:10.470Z,-2.33
2022-12-19T09:12:42.073Z,-2.28
2022-12-19T09:15:14.096Z,-2.43
2022-12-19T09:17:45.834Z,-2.42
2022-12-19T09:20:22.945Z,-2.47
2022-12-19T09:22:55.290Z,-2.50
2022-12-19T09:25:26.898Z,-2.36
2022-12-19T09:28:26.921Z,-2.12
2022-12-19T09:31:07.765Z,-1.88
2022-12-19T09:33:43.562Z,-1.79
2022-12-19T09:36:18.396Z,-1.71
2022-12-19T09:38:53.496Z,-1.61
2022-12-19T09:41:34.223Z,-1.43
2022-12-19T09:44:15.461Z,-1.21
2022-12-19T09:46:57.173Z,-1.02
2022-12-19T09:49:42.813Z,-0.95
2022-12-19T09:52:30.425Z,-0.89
2022-12-19T09:55:22.996Z,-0.70
2022-12-19T09:57:54.540Z,-0.50
2022-12-19T10:00:42.131Z,-0.47
2022-12-19T10:03:33.554Z,-0.46
2022-12-19T10:07:11.921Z,-0.34
2022-12-19T10:10:55.565Z,-0.20
2022-12-19T10:12:42.502Z,0.04
2022-12-19T10:16:00.538Z,0.24
2022-12-19T10:18:42.230Z,0.27
2022-12-19T10:21:36.976Z,0.40
2022-12-19T10:25:08.019Z,0.53
2022-12-19T10:27:58.489Z,0.66
2022-12-19T10:30:36.565Z,0.76
2022-12-19T10:33:23.557Z,0.88
2022-12-19T10:36:01.988Z,0.74
2022-12-19T10:38:46.197Z,0.76
2022-12-19T10:41:36.767Z,0.89
2022-12-19T10:44:15.884Z,1.09
2022-12-19T10:46:49.717Z,1.28
2022-12-19T10:49:24.965Z,1.36
2022-12-19T10:51:56.505Z,1.36
2022-12-19T10:54:40.266Z,1.36
2022-12-19T10:57:30.055Z,1.41
2022-12-19T11:00:05.385Z,1.42
2022-12-19T11:02:49.341Z,1.49
2022-12-19T11:05:29.024Z,1.50
2022-12-19T11:08:07.970Z,1.52
2022-12-19T11:11:12.037Z,1.56
2022-12-19T11:19:17.625Z,1.60
2022-12-19T11:24:45.797Z,1.63
2022-12-19T11:29:24.898Z,1.68
2022-12-19T11:29:44.181Z,1.60
2022-12-19T11:29:44.967Z,1.70
2022-12-19T11:30:44.320Z,1.77
2022-12-19T11:34:23.700Z,1.60
2022-12-19T11:37:18.465Z,1.57
2022-12-19T11:40:41.743Z,1.63
2022-12-19T11:43:43.602Z,1.75
2022-12-19T11:46:23.931Z,1.78
2022-12-19T11:49:23.304Z,1.81
2022-12-19T11:52:03.991Z,1.74
2022-12-19T11:55:04.630Z,1.71
2022-12-19T11:57:39.586Z,1.65
2022-12-19T12:00:30.465Z,1.68
2022-12-19T12:03:35.568Z,1.75
2022-12-19T12:06:16.210Z,1.77
2022-12-19T12:11:31.607Z,1.74
2022-12-19T12:15:01.793Z,1.64
2022-12-19T12:30:19.041Z,1.56
2022-12-19T12:31:09.270Z,1.54
2022-12-19T12:31:17.060Z,1.54
2022-12-19T12:31:42.627Z,1.47
2022-12-19T12:32:01.912Z,1.35
2022-12-19T12:35:46.567Z,1.35
2022-12-19T12:36:53.126Z,1.25
2022-12-19T12:38:22.969Z,1.21
2022-12-19T12:41:09.465Z,1.12
2022-12-19T12:43:54.935Z,1.07
2022-12-19T12:46:31.365Z,1.10
2022-12-19T12:49:30.356Z,1.13
2022-12-19T12:52:06.239Z,1.08
2022-12-19T12:54:44.722Z,1.03
2022-12-19T12:57:37.565Z,1.04
2022-12-19T13:00:31.851Z,1.05
2022-12-19T13:03:13.103Z,0.96
2022-12-19T13:05:54.881Z,0.89
2022-12-19T13:08:46.721Z,0.80
2022-12-19T13:11:37.457Z,0.71
2022-12-19T13:14:39.798Z,0.72
2022-12-19T13:17:44.726Z,0.68
2022-12-19T13:20:17.177Z,0.77
2022-12-19T13:23:00.561Z,0.87
2022-12-19T13:25:35.004Z,0.79
2022-12-19T13:28:26.445Z,0.79
2022-12-19T13:31:20.787Z,0.81
2022-12-19T13:33:55.647Z,0.89
2022-12-19T13:39:48.680Z,0.86
2022-12-19T13:40:09.104Z,0.82
2022-12-19T13:43:14.857Z,0.88
2022-12-19T13:45:53.476Z,0.89
2022-12-19T13:48:40.128Z,0.78
2022-12-19T13:51:13.555Z,0.76
2022-12-19T13:53:45.145Z,0.71
2022-12-19T13:56:19.358Z,0.71
2022-12-19T13:59:03.770Z,0.61
2022-12-19T14:01:37.482Z,0.66
2022-12-19T14:04:20.499Z,0.62
2022-12-19T14:07:06.643Z,0.55
2022-12-19T14:11:26.477Z,0.54
2022-12-19T14:13:55.602Z,0.45
2022-12-19T14:15:51.981Z,0.45
2022-12-19T14:18:42.877Z,0.34
2022-12-19T14:22:06.091Z,0.36
2022-12-19T14:24:25.056Z,0.36
2022-12-19T14:28:18.525Z,0.33
2022-12-19T14:30:30.381Z,0.34
2022-12-19T14:33:47.422Z,0.39
2022-12-19T14:36:12.072Z,0.44
2022-12-19T14:39:24.217Z,0.42
2022-12-19T14:42:01.518Z,0.39
2022-12-19T14:52:08.383Z,0.31
2022-12-19T14:53:52.729Z,0.29
2022-12-19T14:54:22.685Z,0.40
2022-12-19T14:54:22.926Z,0.42
2022-12-19T14:59:35.775Z,0.30
2022-12-19T15:02:07.465Z,0.29
2022-12-19T15:04:51.396Z,0.26
2022-12-19T15:07:29.961Z,0.30
2022-12-19T15:11:02.371Z,0.38
2022-12-19T15:14:47.391Z,0.36
2022-12-19T15:16:34.600Z,0.38
2022-12-19T15:19:12.622Z,0.44
2022-12-19T15:21:44.220Z,0.54
2022-12-19T15:24:18.657Z,0.48
2022-12-19T15:26:53.355Z,0.48
2022-12-19T15:29:26.624Z,0.48
2022-12-19T15:31:58.469Z,0.45
2022-12-19T15:34:37.373Z,0.47
2022-12-19T15:37:11.822Z,0.42
2022-12-19T15:39:44.934Z,0.37
2022-12-19T15:42:25.125Z,0.38
2022-12-19T15:44:59.875Z,0.44
2022-12-19T15:47:33.344Z,0.49
2022-12-19T15:50:29.346Z,0.55
2022-12-19T15:53:05.770Z,0.60
2022-12-19T15:55:39.566Z,0.69
2022-12-19T15:58:13.573Z,0.75
2022-12-19T16:00:57.595Z,0.81
2022-12-19T16:03:29.595Z,0.79
2022-12-19T16:06:01.408Z,0.76
2022-12-19T16:08:32.995Z,0.76
2022-12-19T16:11:04.675Z,0.74
2022-12-19T16:13:36.339Z,0.79
2022-12-19T16:16:15.412Z,0.88
2022-12-19T16:18:47.602Z,0.94
2022-12-19T16:21:29.223Z,0.94
2022-12-19T16:24:05.306Z,0.96
2022-12-19T16:26:40.281Z,0.99
2022-12-19T16:29:23.924Z,1.03
2022-12-19T16:31:56.880Z,1.06
2022-12-19T16:34:28.622Z,1.10
2022-12-19T16:37:00.354Z,1.14
2022-12-19T16:39:31.922Z,1.17
2022-12-19T16:42:07.102Z,1.16
2022-12-19T16:44:38.688Z,1.10
2022-12-19T16:47:16.121Z,1.09
2022-12-19T16:49:47.786Z,1.11
2022-12-19T16:52:19.364Z,1.11
2022-12-19T16:54:51.179Z,1.12
2022-12-19T16:57:22.875Z,1.13
2022-12-19T16:59:54.600Z,1.15
2022-12-19T17:02:38.533Z,1.16
2022-12-19T17:05:25.341Z,1.18
2022-12-19T17:07:58.238Z,1.16
2022-12-19T17:10:33.519Z,1.17
2022-12-19T17:13:05.189Z,1.19
2022-12-19T17:15:38.787Z,1.20
2022-12-19T17:18:27.147Z,1.16
2022-12-19T17:20:59.098Z,1.15
2022-12-19T17:23:32.616Z,1.14
2022-12-19T17:26:04.481Z,1.09
2022-12-19T17:28:36.147Z,1.08
2022-12-19T17:31:17.595Z,1.04
2022-12-19T17:33:58.035Z,1.02
2022-12-19T17:36:37.017Z,1.05
2022-12-19T17:39:36.257Z,1.04
2022-12-19T17:42:18.464Z,1.09
2022-12-19T17:44:50.870Z,1.13
2022-12-19T17:47:22.694Z,1.17
2022-12-19T17:49:55.960Z,1.19
2022-12-19T17:52:29.217Z,1.20
2022-12-19T17:55:01.003Z,1.26
2022-12-19T17:57:32.662Z,1.26
2022-12-19T18:00:04.861Z,1.27
2022-12-19T18:02:45.863Z,1.21
2022-12-19T18:05:25.907Z,1.20
2022-12-19T18:07:57.623Z,1.19
2022-12-19T18:10:31.405Z,1.21
2022-12-19T18:13:04.377Z,1.17
2022-12-19T18:15:36.170Z,1.12
2022-12-19T18:18:13.994Z,1.11
2022-12-19T18:20:45.787Z,1.10
2022-12-19T18:23:20.772Z,1.12
2022-12-19T18:25:59.306Z,1.09
2022-12-19T18:28:33.036Z,1.13
2022-12-19T18:31:14.305Z,1.12
2022-12-19T18:33:55.408Z,1.12
2022-12-19T18:36:33.988Z,1.15
2022-12-19T18:39:26.900Z,1.15
2022-12-19T18:41:58.521Z,1.15
2022-12-19T18:44:30.119Z,1.13
2022-12-19T18:47:02.082Z,1.16
2022-12-19T18:49:36.667Z,1.15
2022-12-19T18:52:10.570Z,1.10
2022-12-19T18:54:42.455Z,1.13
2022-12-19T18:57:14.642Z,1.15
2022-12-19T18:59:47.864Z,1.10
2022-12-19T19:02:26.552Z,1.03
2022-12-19T19:04:59.318Z,1.08
2022-12-19T19:07:31.005Z,1.14
2022-12-19T19:10:06.218Z,1.17
2022-12-19T19:12:45.036Z,1.19
2022-12-19T19:15:19.108Z,1.20
2022-12-19T19:18:00.207Z,1.20
2022-12-19T19:20:36.188Z,1.23
2022-12-19T19:23:11.370Z,1.27
2022-12-19T19:25:44.244Z,1.30
2022-12-19T19:28:16.093Z,1.34
2022-12-19T19:30:47.723Z,1.35
2022-12-19T19:33:25.475Z,1.34
2022-12-19T19:36:04.683Z,1.28
2022-12-19T19:38:45.454Z,1.23
2022-12-19T19:41:17.474Z,1.27
2022-12-19T19:43:49.106Z,1.30
2022-12-19T19:46:21.988Z,1.33
2022-12-19T19:48:54.082Z,1.29
2022-12-19T19:51:29.067Z,1.25
2022-12-19T19:54:00.980Z,1.21
2022-12-19T19:56:32.615Z,1.21
2022-12-19T19:59:07.818Z,1.17
2022-12-19T20:01:42.290Z,1.15
2022-12-19T20:04:16.635Z,1.14
2022-12-19T20:06:48.435Z,1.14
2022-12-19T20:09:20.094Z,1.22
2022-12-19T20:11:51.739Z,1.29
2022-12-19T20:14:23.884Z,1.35
2022-12-19T20:16:55.812Z,1.41
2022-12-19T20:19:27.558Z,1.44
2022-12-19T20:22:00.211Z,1.43
2022-12-19T20:24:32.038Z,1.38
2022-12-19T20:27:03.667Z,1.39
2022-12-19T20:29:35.395Z,1.38
2022-12-19T20:32:07.085Z,1.38
2022-12-19T20:34:38.740Z,1.39
2022-12-19T20:37:10.516Z,1.43
2022-12-19T20:39:42.359Z,1.44
2022-12-19T20:42:14.010Z,1.47
2022-12-19T20:44:45.662Z,1.48
2022-12-19T20:47:17.341Z,1.49
2022-12-19T20:49:49.041Z,1.50
2022-12-19T20:52:20.738Z,1.49
2022-12-19T20:54:52.348Z,1.49
2022-12-19T20:57:23.897Z,1.47
2022-12-19T20:59:55.655Z,1.46
2022-12-19T21:02:27.508Z,1.44
2022-12-19T21:04:59.891Z,1.44
2022-12-19T21:07:31.550Z,1.43
2022-12-19T21:10:03.387Z,1.45
2022-12-19T21:12:34.931Z,1.43
2022-12-19T21:15:07.125Z,1.41
2022-12-19T21:17:38.697Z,1.37
2022-12-19T21:20:11.124Z,1.35
2022-12-19T21:22:42.681Z,1.35
2022-12-19T21:25:14.460Z,1.25
2022-12-19T21:27:46.771Z,1.21
2022-12-19T21:30:19.102Z,1.20
2022-12-19T21:32:50.726Z,1.17
2022-12-19T21:35:22.620Z,1.18
2022-12-19T21:37:54.257Z,1.16
2022-12-19T21:40:25.880Z,1.16
2022-12-19T21:42:57.443Z,1.18
2022-12-19T21:45:29.404Z,1.16
2022-12-19T21:48:01.509Z,1.17
2022-12-19T21:50:36.262Z,1.20
2022-12-19T21:53:07.912Z,1.20
2022-12-19T21:55:40.010Z,1.20
2022-12-19T21:58:11.620Z,1.18
2022-12-19T22:00:43.249Z,1.17
2022-12-19T22:03:16.325Z,1.12
2022-12-19T22:05:49.064Z,1.08
2022-12-19T22:08:20.600Z,1.08
2022-12-19T22:10:52.255Z,1.10
2022-12-19T22:13:24.077Z,1.07
2022-12-19T22:16:01.926Z,1.04
2022-12-19T22:18:35.316Z,1.02
2022-12-19T22:21:09.285Z,1.01
2022-12-19T22:23:41.855Z,1.02
2022-12-19T22:26:14.694Z,0.95
2022-12-19T22:28:48.789Z,0.92
2022-12-19T22:31:23.911Z,0.89
2022-12-19T22:34:08.029Z,0.91
2022-12-19T22:36:41.380Z,0.87
2022-12-19T22:39:17.704Z,0.86
2022-12-19T22:41:49.371Z,0.82
2022-12-19T22:44:23.640Z,0.77
2022-12-19T22:46:55.377Z,0.78
2022-12-19T22:49:27.082Z,0.77
2022-12-19T22:51:58.690Z,0.74
2022-12-19T22:54:30.327Z,0.75
2022-12-19T22:57:01.945Z,0.76
2022-12-19T22:59:33.593Z,0.69
2022-12-19T23:02:05.468Z,0.71
2022-12-19T23:04:37.248Z,0.69
2022-12-19T23:07:08.840Z,0.65
2022-12-19T23:09:40.486Z,0.64
2022-12-19T23:12:12.109Z,0.60
2022-12-19T23:14:43.736Z,0.57
2022-12-19T23:17:15.589Z,0.56
2022-12-19T23:19:47.261Z,0.55
2022-12-19T23:22:18.936Z,0.53
2022-12-19T23:24:50.537Z,0.52
2022-12-19T23:27:22.354Z,0.52
2022-12-19T23:29:53.923Z,0.50
2022-12-19T23:32:25.580Z,0.48
2022-12-19T23:34:57.227Z,0.45
2022-12-19T23:37:28.806Z,0.46
2022-12-19T23:40:00.374Z,0.46
2022-12-19T23:42:31.985Z,0.43
2022-12-19T23:45:03.727Z,0.37
2022-12-19T23:47:35.386Z,0.36
2022-12-19T23:50:07.750Z,0.34
2022-12-19T23:52:39.420Z,0.30
2022-12-19T23:55:11.559Z,0.27
2022-12-19T23:57:43.164Z,0.25
